createdAt,value
2022-11-19T00:00:03.153Z,11.1
2022-11-19T00:05:41.028Z,11.1
2022-11-19T00:11:24.495Z,11.1
2022-11-19T00:16:47.006Z,11.1
2022-11-19T00:22:09.304Z,11.1
2022-11-19T00:27:47.465Z,11
2022-11-19T00:33:40.112Z,11
2022-11-19T00:44:26.248Z,10.9
2022-11-19T00:50:03.923Z,10.9
2022-11-19T00:55:41.446Z,10.9
2022-11-19T01:01:03.807Z,10.8
2022-11-19T01:12:04.823Z,10.8
2022-11-19T01:17:42.121Z,10.8
2022-11-19T01:23:20.303Z,10.8
2022-11-19T01:28:47.340Z,10.7
2022-11-19T01:34:09.191Z,10.7
2022-11-19T01:39:46.754Z,10.6
2022-11-19T01:45:24.679Z,10.6
2022-11-19T01:50:46.483Z,10.6
2022-11-19T01:56:24.749Z,10.6
2022-11-19T02:02:02.675Z,10.6
2022-11-19T02:07:41.152Z,10.6
2022-11-19T02:13:02.938Z,10.6
2022-11-19T02:18:40.588Z,10.6
2022-11-19T02:24:24.064Z,10.6
2022-11-19T02:30:00.424Z,10.5
2022-11-19T02:35:21.246Z,10.5
2022-11-19T02:40:59.614Z,10.4
2022-11-19T02:46:06.583Z,10.4
2022-11-19T02:51:43.975Z,10.3
2022-11-19T03:02:44.863Z,10.2
2022-11-19T03:08:06.898Z,10.1
2022-11-19T03:13:44.569Z,10
2022-11-19T03:24:27.778Z,9.9
2022-11-19T03:29:50.283Z,9.8
2022-11-19T03:35:27.480Z,9.7
2022-11-19T03:41:06.072Z,9.6
2022-11-19T03:46:43.258Z,9.4
2022-11-19T03:52:20.715Z,9.4
2022-11-19T03:58:00.235Z,9.2
2022-11-19T04:03:43.539Z,9.1
2022-11-19T04:09:22.003Z,8.9
2022-11-19T04:14:58.222Z,8.8
2022-11-19T04:20:20.810Z,8.7
2022-11-19T04:31:05.465Z,8.5
2022-11-19T04:36:12.154Z,8.4
2022-11-19T04:41:49.617Z,8.3
2022-11-19T04:52:37.788Z,8.2
2022-11-19T04:58:19.142Z,8.1
2022-11-19T05:09:03.878Z,7.9
2022-11-19T05:14:46.945Z,7.9
2022-11-19T05:20:23.950Z,7.9
2022-11-19T05:26:02.186Z,7.8
2022-11-19T05:31:47.309Z,7.8
2022-11-19T05:37:29.795Z,7.8
2022-11-19T05:43:07.878Z,7.7
2022-11-19T05:48:45.414Z,7.7
2022-11-19T05:54:23.920Z,7.7
2022-11-19T06:00:02.320Z,7.7
2022-11-19T06:05:40.875Z,7.8
2022-11-19T06:11:17.726Z,7.8
2022-11-19T06:17:00.325Z,7.9
2022-11-19T06:22:39.734Z,8.1
2022-11-19T06:28:02.580Z,8.4
2022-11-19T06:33:40.818Z,9.2
2022-11-19T06:39:25.329Z,10.2
2022-11-19T06:45:08.617Z,11.6
2022-11-19T06:50:47.897Z,13.3
2022-11-19T06:56:27.530Z,15.4
2022-11-19T07:02:05.808Z,17.6
2022-11-19T07:07:44.156Z,13.5
2022-11-19T07:13:23.711Z,46.4
2022-11-19T07:18:47.491Z,43.1
2022-11-19T07:24:27.381Z,42
2022-11-19T07:30:05.791Z,57.9
2022-11-19T07:35:43.143Z,57.2
2022-11-19T07:41:28.873Z,57.1
2022-11-19T07:47:12.412Z,56.8
2022-11-19T07:52:54.825Z,57.4
2022-11-19T07:58:24.556Z,58.1
2022-11-19T08:03:49.586Z,58.9
2022-11-19T08:09:29.515Z,59.8
2022-11-19T08:15:07.788Z,60.1
2022-11-19T08:20:50.265Z,60.8
2022-11-19T08:26:28.292Z,61
2022-11-19T08:32:09.020Z,61.8
2022-11-19T08:37:47.359Z,62.3
2022-11-19T08:43:26.184Z,62.8
2022-11-19T08:49:04.228Z,62.9
2022-11-19T08:54:42.208Z,63.8
2022-11-19T09:00:23.167Z,64.3
2022-11-19T09:06:07.879Z,64.8
2022-11-19T09:11:46.004Z,65
2022-11-19T09:17:09.023Z,65.7
2022-11-19T09:22:50.749Z,66.1
2022-11-19T09:28:34.497Z,66.6
2022-11-19T09:34:11.886Z,67
2022-11-19T09:39:49.584Z,67.4
2022-11-19T09:45:34.062Z,67.8
2022-11-19T09:51:11.277Z,67.6
2022-11-19T09:56:49.607Z,67.4
2022-11-19T10:07:50.530Z,67.9
2022-11-19T10:13:34.239Z,68
2022-11-19T10:19:02.192Z,68.3
2022-11-19T10:24:41.861Z,69.1
2022-11-19T10:30:19.406Z,68.6
2022-11-19T10:35:57.342Z,69.2
2022-11-19T10:41:40.501Z,69.6
2022-11-19T10:47:21.807Z,69.1
2022-11-19T10:53:03.101Z,68.9
2022-11-19T10:58:30.575Z,68.7
2022-11-19T11:03:55.975Z,67.7
2022-11-19T11:09:35.765Z,67.1
2022-11-19T11:15:13.444Z,67
2022-11-19T11:20:52.730Z,68.4
2022-11-19T11:26:34.947Z,69.2
2022-11-19T11:32:13.193Z,69.6
2022-11-19T11:37:45.391Z,69.1
2022-11-19T11:43:27.859Z,68.3
2022-11-19T11:49:11.333Z,67.4
2022-11-19T11:54:35.244Z,66.4
2022-11-19T11:59:57.623Z,64.6
2022-11-19T12:05:18.003Z,60.4
2022-11-19T12:11:01.836Z,56.8
2022-11-19T12:16:45.574Z,54.4
2022-11-19T12:22:07.975Z,52.3
2022-11-19T12:27:45.480Z,50.1
2022-11-19T12:33:22.946Z,48.2
2022-11-19T12:39:00.655Z,46.4
2022-11-19T12:44:40.150Z,44.7
2022-11-19T12:50:19.848Z,42.9
2022-11-19T12:56:03.226Z,41.3
2022-11-19T13:01:41.864Z,39.8
2022-11-19T13:07:07.349Z,38.4
2022-11-19T13:12:30.185Z,37
2022-11-19T13:17:52.928Z,35.8
2022-11-19T13:23:30.423Z,34.6
2022-11-19T13:29:08.421Z,33.3
2022-11-19T13:34:46.571Z,32.2
2022-11-19T13:40:29.991Z,31.1
2022-11-19T13:46:33.651Z,30.1
2022-11-19T13:52:13.588Z,29.1
2022-11-19T13:57:54.635Z,28.3
2022-11-19T14:03:32.448Z,27.4
2022-11-19T14:09:15.202Z,26.6
2022-11-19T14:14:37.454Z,25.9
2022-11-19T14:19:49.098Z,25.2
2022-11-19T14:25:11.898Z,24.6
2022-11-19T14:30:50.439Z,23.9
2022-11-19T14:36:28.652Z,23.3
2022-11-19T14:42:11.207Z,22.7
2022-11-19T14:47:50.211Z,22.1
2022-11-19T14:53:12.712Z,21.6
2022-11-19T14:58:51.255Z,21.1
2022-11-19T15:04:29.812Z,20.6
2022-11-19T15:10:13.763Z,20.1
2022-11-19T15:15:51.131Z,19.6
2022-11-19T15:21:12.985Z,19.2
2022-11-19T15:26:41.527Z,18.8
2022-11-19T15:31:50.372Z,18.4
2022-11-19T15:37:48.167Z,18
2022-11-19T15:43:10.920Z,17.7
2022-11-19T16:04:32.802Z,16.5
2022-11-19T16:15:19.606Z,16
2022-11-19T16:20:48.331Z,15.8
2022-11-19T16:26:30.720Z,15.5
2022-11-19T16:32:08.881Z,15.3
2022-11-19T16:37:53.764Z,15.1
2022-11-19T16:43:31.660Z,14.8
2022-11-19T16:48:54.522Z,14.6
2022-11-19T16:54:32.523Z,14.4
2022-11-19T16:59:58.819Z,14.2
2022-11-19T17:05:42.500Z,14
2022-11-19T17:11:20.413Z,13.8
2022-11-19T17:16:43.138Z,13.6
2022-11-19T17:22:26.931Z,13.5
2022-11-19T17:27:53.393Z,13.4
2022-11-19T17:33:35.580Z,13.2
2022-11-19T17:38:58.428Z,13.1
2022-11-19T17:49:56.173Z,12.8
2022-11-19T17:55:18.627Z,12.7
2022-11-19T18:00:56.557Z,12.6
2022-11-19T18:06:36.912Z,12.4
2022-11-19T18:16:53.166Z,12.3
2022-11-19T18:22:32.826Z,12.1
2022-11-19T18:28:11.781Z,12
2022-11-19T18:33:38.973Z,11.9
2022-11-19T18:39:03.709Z,11.7
2022-11-19T18:44:48.768Z,11.6
2022-11-19T18:50:30.220Z,11.4
2022-11-19T18:56:08.921Z,11.3
2022-11-19T19:07:08.739Z,11
2022-11-19T19:12:19.572Z,10.9
2022-11-19T19:18:00.527Z,10.8
2022-11-19T19:23:26.965Z,10.6
2022-11-19T19:29:13.712Z,10.6
2022-11-19T19:34:42.633Z,10.5
2022-11-19T19:40:21.902Z,10.4
2022-11-19T19:46:07.084Z,10.4
2022-11-19T19:51:46.818Z,10.4
2022-11-19T19:57:26.459Z,10.4
2022-11-19T20:02:52.170Z,10.3
2022-11-19T20:08:31.857Z,10.3
2022-11-19T20:14:15.105Z,10.3
2022-11-19T20:19:43.613Z,10.3
2022-11-19T20:25:24.101Z,10.3
2022-11-19T20:31:04.297Z,10.3
2022-11-19T20:36:42.317Z,10.3
2022-11-19T20:42:04.908Z,10.3
2022-11-19T20:47:49.749Z,10.3
2022-11-19T20:53:31.155Z,10.3
2022-11-19T20:59:13.651Z,10.3
2022-11-19T21:04:56.220Z,10.3
2022-11-19T21:10:24.521Z,10.3
2022-11-19T21:16:02.137Z,10.3
2022-11-19T21:21:28.545Z,10.3
2022-11-19T21:27:11.413Z,10.2
2022-11-19T21:32:49.799Z,10.2
2022-11-19T21:38:29.047Z,10.2
2022-11-19T21:44:08.581Z,10.2
2022-11-19T21:49:46.841Z,10.2
2022-11-19T21:55:24.523Z,10.2
2022-11-19T22:01:08.516Z,10.2
2022-11-19T22:06:45.901Z,10.2
2022-11-19T22:17:36.610Z,10.2
2022-11-19T22:23:14.811Z,10.3
2022-11-19T22:28:53.129Z,10.3
2022-11-19T22:34:36.970Z,10.3
2022-11-19T22:40:20.988Z,10.3
2022-11-19T22:45:12.244Z,10.4
2022-11-19T22:50:34.500Z,10.4
2022-11-19T23:01:05.245Z,10.6
2022-11-19T23:06:48.287Z,10.6
2022-11-19T23:12:11.117Z,10.7
2022-11-19T23:17:49.441Z,10.8
2022-11-19T23:23:30.027Z,10.9
2022-11-19T23:29:07.788Z,11.1
2022-11-19T23:34:51.808Z,11.3
2022-11-19T23:45:57.893Z,11.6
2022-11-19T23:51:35.918Z,11.9
2022-11-19T23:57:14.421Z,12.2
